Aviation Digital Data Service (ADDS)

Output produced by METARs form (2255 UTC 19 April 2015)
found at http://aviationweather.gov/adds/metars/
 
KBTV 191722Z 1918/2018 33006KT P6SM SKC 
     FM200100 13003KT P6SM SCT250 
     FM200900 16012G20KT P6SM OVC150 
     FM201500 16022G32KT P6SM -RA OVC050